sensor_id;sensor_type;location;lat;lon;timestamp;P1;durP1;ratioP1;P2;durP2;ratioP2
515;SDS011;244;48.508;9.052;2022-07-03T00:01:31;3.40;;;1.40;;
515;SDS011;244;48.508;9.052;2022-07-03T00:03:58;1.50;;;1.40;;
515;SDS011;244;48.508;9.052;2022-07-03T00:06:25;3.20;;;2.37;;
515;SDS011;244;48.508;9.052;2022-07-03T00:08:52;1.40;;;1.30;;
515;SDS011;244;48.508;9.052;2022-07-03T00:11:21;1.93;;;1.90;;
515;SDS011;244;48.508;9.052;2022-07-03T00:13:48;4.40;;;1.83;;
515;SDS011;244;48.508;9.052;2022-07-03T00:16:15;1.20;;;1.10;;
515;SDS011;244;48.508;9.052;2022-07-03T00:18:44;1.47;;;1.43;;
515;SDS011;244;48.508;9.052;2022-07-03T00:21:22;1.87;;;1.80;;
515;SDS011;244;48.508;9.052;2022-07-03T00:24:02;1.60;;;1.50;;
515;SDS011;244;48.508;9.052;2022-07-03T00:26:32;2.87;;;2.70;;
515;SDS011;244;48.508;9.052;2022-07-03T00:29:03;2.30;;;2.10;;
515;SDS011;244;48.508;9.052;2022-07-03T00:31:32;5.00;;;2.67;;
515;SDS011;244;48.508;9.052;2022-07-03T00:33:59;3.33;;;3.13;;
515;SDS011;244;48.508;9.052;2022-07-03T00:36:30;3.50;;;3.30;;
515;SDS011;244;48.508;9.052;2022-07-03T00:39:00;2.50;;;2.23;;
515;SDS011;244;48.508;9.052;2022-07-03T00:41:27;2.50;;;2.30;;
515;SDS011;244;48.508;9.052;2022-07-03T00:43:57;2.43;;;2.23;;
515;SDS011;244;48.508;9.052;2022-07-03T00:46:24;3.43;;;2.90;;
515;SDS011;244;48.508;9.052;2022-07-03T00:48:53;4.33;;;3.73;;
515;SDS011;244;48.508;9.052;2022-07-03T00:51:26;6.17;;;3.07;;
515;SDS011;244;48.508;9.052;2022-07-03T00:53:55;2.00;;;1.90;;
515;SDS011;244;48.508;9.052;2022-07-03T00:56:24;2.17;;;2.00;;
515;SDS011;244;48.508;9.052;2022-07-03T00:58:53;1.37;;;1.27;;
515;SDS011;244;48.508;9.052;2022-07-03T01:01:22;1.43;;;1.40;;
515;SDS011;244;48.508;9.052;2022-07-03T01:03:53;1.20;;;1.10;;
515;SDS011;244;48.508;9.052;2022-07-03T01:06:35;1.50;;;1.00;;
515;SDS011;244;48.508;9.052;2022-07-03T01:09:06;1.67;;;1.57;;
515;SDS011;244;48.508;9.052;2022-07-03T01:11:34;4.20;;;1.30;;
515;SDS011;244;48.508;9.052;2022-07-03T01:14:11;4.77;;;2.40;;
515;SDS011;244;48.508;9.052;2022-07-03T01:16:49;2.40;;;2.10;;
515;SDS011;244;48.508;9.052;2022-07-03T01:19:29;2.50;;;2.30;;
515;SDS011;244;48.508;9.052;2022-07-03T01:22:06;4.10;;;2.43;;
515;SDS011;244;48.508;9.052;2022-07-03T01:24:59;2.83;;;2.47;;
515;SDS011;244;48.508;9.052;2022-07-03T01:27:49;1.97;;;1.87;;
515;SDS011;244;48.508;9.052;2022-07-03T01:30:25;1.53;;;1.47;;
515;SDS011;244;48.508;9.052;2022-07-03T01:32:56;2.60;;;2.40;;
515;SDS011;244;48.508;9.052;2022-07-03T01:35:31;2.50;;;2.20;;
515;SDS011;244;48.508;9.052;2022-07-03T01:38:06;1.70;;;1.60;;
515;SDS011;244;48.508;9.052;2022-07-03T01:40:36;2.50;;;2.30;;
515;SDS011;244;48.508;9.052;2022-07-03T01:43:06;3.07;;;2.87;;
515;SDS011;244;48.508;9.052;2022-07-03T01:45:36;2.00;;;1.87;;
515;SDS011;244;48.508;9.052;2022-07-03T01:48:07;2.27;;;2.07;;
515;SDS011;244;48.508;9.052;2022-07-03T01:50:36;2.33;;;1.80;;
515;SDS011;244;48.508;9.052;2022-07-03T01:53:06;2.37;;;2.17;;
515;SDS011;244;48.508;9.052;2022-07-03T01:55:34;2.73;;;2.33;;
515;SDS011;244;48.508;9.052;2022-07-03T01:58:03;1.20;;;1.13;;
515;SDS011;244;48.508;9.052;2022-07-03T02:00:36;1.10;;;1.00;;
515;SDS011;244;48.508;9.052;2022-07-03T02:03:12;2.20;;;1.37;;
515;SDS011;244;48.508;9.052;2022-07-03T02:05:46;1.90;;;1.80;;
515;SDS011;244;48.508;9.052;2022-07-03T02:08:26;4.17;;;2.13;;
515;SDS011;244;48.508;9.052;2022-07-03T02:11:04;1.80;;;1.80;;
515;SDS011;244;48.508;9.052;2022-07-03T02:13:44;4.97;;;2.07;;
515;SDS011;244;48.508;9.052;2022-07-03T02:16:18;4.43;;;1.57;;
515;SDS011;244;48.508;9.052;2022-07-03T02:18:49;1.50;;;1.40;;
515;SDS011;244;48.508;9.052;2022-07-03T02:21:24;1.50;;;1.40;;
515;SDS011;244;48.508;9.052;2022-07-03T02:23:54;1.17;;;0.97;;
515;SDS011;244;48.508;9.052;2022-07-03T02:26:29;1.40;;;1.30;;
515;SDS011;244;48.508;9.052;2022-07-03T02:29:04;1.00;;;0.90;;
515;SDS011;244;48.508;9.052;2022-07-03T02:31:34;1.33;;;1.23;;
515;SDS011;244;48.508;9.052;2022-07-03T02:34:06;1.13;;;1.03;;
515;SDS011;244;48.508;9.052;2022-07-03T02:36:35;0.90;;;0.80;;
515;SDS011;244;48.508;9.052;2022-07-03T02:39:02;2.53;;;1.93;;
515;SDS011;244;48.508;9.052;2022-07-03T02:41:37;1.70;;;1.60;;
515;SDS011;244;48.508;9.052;2022-07-03T02:44:14;1.63;;;1.53;;
515;SDS011;244;48.508;9.052;2022-07-03T02:46:50;1.33;;;1.30;;
515;SDS011;244;48.508;9.052;2022-07-03T02:49:37;1.47;;;1.40;;
515;SDS011;244;48.508;9.052;2022-07-03T02:52:12;2.33;;;1.83;;
515;SDS011;244;48.508;9.052;2022-07-03T02:54:53;1.30;;;1.20;;
515;SDS011;244;48.508;9.052;2022-07-03T02:57:23;2.20;;;1.63;;
515;SDS011;244;48.508;9.052;2022-07-03T02:59:55;1.73;;;1.63;;
515;SDS011;244;48.508;9.052;2022-07-03T03:02:41;1.63;;;1.53;;
515;SDS011;244;48.508;9.052;2022-07-03T03:05:21;1.20;;;1.10;;
515;SDS011;244;48.508;9.052;2022-07-03T03:08:00;1.67;;;1.30;;
515;SDS011;244;48.508;9.052;2022-07-03T03:10:36;1.43;;;1.33;;
515;SDS011;244;48.508;9.052;2022-07-03T03:13:04;1.43;;;1.33;;
515;SDS011;244;48.508;9.052;2022-07-03T03:15:34;2.00;;;1.80;;
515;SDS011;244;48.508;9.052;2022-07-03T03:18:04;1.30;;;1.17;;
515;SDS011;244;48.508;9.052;2022-07-03T03:20:34;1.70;;;1.60;;
515;SDS011;244;48.508;9.052;2022-07-03T03:23:08;1.70;;;1.60;;
515;SDS011;244;48.508;9.052;2022-07-03T03:25:38;1.33;;;1.20;;
515;SDS011;244;48.508;9.052;2022-07-03T03:28:05;1.13;;;1.03;;
515;SDS011;244;48.508;9.052;2022-07-03T03:30:33;1.10;;;1.00;;
515;SDS011;244;48.508;9.052;2022-07-03T03:33:01;2.03;;;1.90;;
515;SDS011;244;48.508;9.052;2022-07-03T03:35:34;1.10;;;1.00;;
515;SDS011;244;48.508;9.052;2022-07-03T03:38:02;1.33;;;1.23;;
515;SDS011;244;48.508;9.052;2022-07-03T03:40:30;1.27;;;1.17;;
515;SDS011;244;48.508;9.052;2022-07-03T03:42:58;2.27;;;1.20;;
515;SDS011;244;48.508;9.052;2022-07-03T03:45:25;2.17;;;1.33;;
515;SDS011;244;48.508;9.052;2022-07-03T03:47:53;2.63;;;2.43;;
515;SDS011;244;48.508;9.052;2022-07-03T03:50:20;1.80;;;1.03;;
515;SDS011;244;48.508;9.052;2022-07-03T03:52:47;1.90;;;1.80;;
515;SDS011;244;48.508;9.052;2022-07-03T03:55:14;1.33;;;1.20;;
515;SDS011;244;48.508;9.052;2022-07-03T03:57:41;1.40;;;1.30;;
515;SDS011;244;48.508;9.052;2022-07-03T04:00:08;1.40;;;1.30;;
515;SDS011;244;48.508;9.052;2022-07-03T04:02:36;1.83;;;1.73;;
515;SDS011;244;48.508;9.052;2022-07-03T04:05:05;1.40;;;1.30;;
515;SDS011;244;48.508;9.052;2022-07-03T04:07:32;1.10;;;1.00;;
515;SDS011;244;48.508;9.052;2022-07-03T04:09:59;1.23;;;1.13;;
515;SDS011;244;48.508;9.052;2022-07-03T04:12:26;1.77;;;1.60;;
515;SDS011;244;48.508;9.052;2022-07-03T04:14:53;1.27;;;1.20;;
515;SDS011;244;48.508;9.052;2022-07-03T04:17:23;1.63;;;1.13;;
515;SDS011;244;48.508;9.052;2022-07-03T04:19:49;1.47;;;1.37;;
515;SDS011;244;48.508;9.052;2022-07-03T04:22:18;3.80;;;1.10;;
515;SDS011;244;48.508;9.052;2022-07-03T04:24:45;2.43;;;1.40;;
515;SDS011;244;48.508;9.052;2022-07-03T04:27:11;3.17;;;1.57;;
515;SDS011;244;48.508;9.052;2022-07-03T04:29:38;1.97;;;1.87;;
515;SDS011;244;48.508;9.052;2022-07-03T04:32:06;2.17;;;1.60;;
515;SDS011;244;48.508;9.052;2022-07-03T04:34:34;1.10;;;1.00;;
515;SDS011;244;48.508;9.052;2022-07-03T04:37:01;1.83;;;1.40;;
515;SDS011;244;48.508;9.052;2022-07-03T04:39:32;1.63;;;1.50;;
515;SDS011;244;48.508;9.052;2022-07-03T04:41:59;1.27;;;1.17;;
515;SDS011;244;48.508;9.052;2022-07-03T04:44:26;3.57;;;1.67;;
515;SDS011;244;48.508;9.052;2022-07-03T04:46:53;1.50;;;1.40;;
515;SDS011;244;48.508;9.052;2022-07-03T04:49:20;1.23;;;1.23;;
515;SDS011;244;48.508;9.052;2022-07-03T04:51:47;2.20;;;1.30;;
515;SDS011;244;48.508;9.052;2022-07-03T04:54:14;1.00;;;0.97;;
515;SDS011;244;48.508;9.052;2022-07-03T04:56:42;1.83;;;1.63;;
515;SDS011;244;48.508;9.052;2022-07-03T04:59:09;1.37;;;1.30;;
515;SDS011;244;48.508;9.052;2022-07-03T05:01:36;1.50;;;1.37;;
515;SDS011;244;48.508;9.052;2022-07-03T05:04:03;1.43;;;1.40;;
515;SDS011;244;48.508;9.052;2022-07-03T05:06:31;2.50;;;1.93;;
515;SDS011;244;48.508;9.052;2022-07-03T05:08:59;1.40;;;1.30;;
515;SDS011;244;48.508;9.052;2022-07-03T05:11:26;1.67;;;1.30;;
515;SDS011;244;48.508;9.052;2022-07-03T05:13:54;1.47;;;1.40;;
515;SDS011;244;48.508;9.052;2022-07-03T05:16:21;1.00;;;1.00;;
515;SDS011;244;48.508;9.052;2022-07-03T05:18:48;1.57;;;1.47;;
515;SDS011;244;48.508;9.052;2022-07-03T05:21:15;1.30;;;1.20;;
515;SDS011;244;48.508;9.052;2022-07-03T05:23:42;1.80;;;1.67;;
515;SDS011;244;48.508;9.052;2022-07-03T05:26:08;1.30;;;1.20;;
515;SDS011;244;48.508;9.052;2022-07-03T05:28:35;1.17;;;1.07;;
515;SDS011;244;48.508;9.052;2022-07-03T05:31:04;1.10;;;1.00;;
515;SDS011;244;48.508;9.052;2022-07-03T05:33:31;1.20;;;1.10;;
515;SDS011;244;48.508;9.052;2022-07-03T05:35:58;1.43;;;1.33;;
515;SDS011;244;48.508;9.052;2022-07-03T05:38:25;1.33;;;1.23;;
515;SDS011;244;48.508;9.052;2022-07-03T05:41:10;1.53;;;1.43;;
515;SDS011;244;48.508;9.052;2022-07-03T05:43:37;1.23;;;1.00;;
515;SDS011;244;48.508;9.052;2022-07-03T05:46:05;1.10;;;1.00;;
515;SDS011;244;48.508;9.052;2022-07-03T05:48:32;1.30;;;1.20;;
515;SDS011;244;48.508;9.052;2022-07-03T05:50:59;2.30;;;1.30;;
515;SDS011;244;48.508;9.052;2022-07-03T05:53:26;2.50;;;1.37;;
515;SDS011;244;48.508;9.052;2022-07-03T05:55:53;1.40;;;1.33;;
515;SDS011;244;48.508;9.052;2022-07-03T05:58:20;1.50;;;1.40;;
515;SDS011;244;48.508;9.052;2022-07-03T06:00:47;4.17;;;1.30;;
515;SDS011;244;48.508;9.052;2022-07-03T06:03:17;1.30;;;1.20;;
515;SDS011;244;48.508;9.052;2022-07-03T06:05:44;1.87;;;1.50;;
515;SDS011;244;48.508;9.052;2022-07-03T06:08:11;1.47;;;1.43;;
515;SDS011;244;48.508;9.052;2022-07-03T06:10:38;1.17;;;1.07;;
515;SDS011;244;48.508;9.052;2022-07-03T06:13:04;1.37;;;1.17;;
515;SDS011;244;48.508;9.052;2022-07-03T06:15:31;1.57;;;1.47;;
515;SDS011;244;48.508;9.052;2022-07-03T06:17:58;2.83;;;2.63;;
515;SDS011;244;48.508;9.052;2022-07-03T06:20:26;1.63;;;1.53;;
515;SDS011;244;48.508;9.052;2022-07-03T06:22:53;1.17;;;1.10;;
515;SDS011;244;48.508;9.052;2022-07-03T06:25:20;4.80;;;1.67;;
515;SDS011;244;48.508;9.052;2022-07-03T06:27:47;1.33;;;1.13;;
515;SDS011;244;48.508;9.052;2022-07-03T06:30:14;1.37;;;1.27;;
515;SDS011;244;48.508;9.052;2022-07-03T06:32:41;1.57;;;1.10;;
515;SDS011;244;48.508;9.052;2022-07-03T06:35:08;1.47;;;1.37;;
515;SDS011;244;48.508;9.052;2022-07-03T06:37:36;1.30;;;1.20;;
515;SDS011;244;48.508;9.052;2022-07-03T06:40:03;1.20;;;1.10;;
515;SDS011;244;48.508;9.052;2022-07-03T06:42:31;1.90;;;1.57;;
515;SDS011;244;48.508;9.052;2022-07-03T06:44:58;1.33;;;1.23;;
515;SDS011;244;48.508;9.052;2022-07-03T06:47:25;1.30;;;1.20;;
515;SDS011;244;48.508;9.052;2022-07-03T06:49:54;1.53;;;1.50;;
515;SDS011;244;48.508;9.052;2022-07-03T06:52:21;1.93;;;1.13;;
515;SDS011;244;48.508;9.052;2022-07-03T06:54:49;1.70;;;1.40;;
515;SDS011;244;48.508;9.052;2022-07-03T06:57:16;0.97;;;0.87;;
515;SDS011;244;48.508;9.052;2022-07-03T06:59:42;1.30;;;1.20;;
515;SDS011;244;48.508;9.052;2022-07-03T07:02:09;1.03;;;0.93;;
515;SDS011;244;48.508;9.052;2022-07-03T07:04:36;1.53;;;1.10;;
515;SDS011;244;48.508;9.052;2022-07-03T07:07:03;1.40;;;1.30;;
515;SDS011;244;48.508;9.052;2022-07-03T07:09:31;1.53;;;1.20;;
515;SDS011;244;48.508;9.052;2022-07-03T07:12:03;1.30;;;1.20;;
515;SDS011;244;48.508;9.052;2022-07-03T07:14:30;1.00;;;0.90;;
515;SDS011;244;48.508;9.052;2022-07-03T07:16:57;1.00;;;0.90;;
515;SDS011;244;48.508;9.052;2022-07-03T07:19:24;1.60;;;1.10;;
515;SDS011;244;48.508;9.052;2022-07-03T07:21:51;1.13;;;1.03;;
515;SDS011;244;48.508;9.052;2022-07-03T07:24:18;1.30;;;1.20;;
515;SDS011;244;48.508;9.052;2022-07-03T07:26:45;1.23;;;1.00;;
515;SDS011;244;48.508;9.052;2022-07-03T07:29:14;1.57;;;1.23;;
515;SDS011;244;48.508;9.052;2022-07-03T07:31:43;1.87;;;1.77;;
515;SDS011;244;48.508;9.052;2022-07-03T07:34:10;1.20;;;1.10;;
515;SDS011;244;48.508;9.052;2022-07-03T07:36:38;1.53;;;1.20;;
515;SDS011;244;48.508;9.052;2022-07-03T07:39:05;1.20;;;1.10;;
515;SDS011;244;48.508;9.052;2022-07-03T07:41:32;1.30;;;1.20;;
515;SDS011;244;48.508;9.052;2022-07-03T07:43:59;1.37;;;1.27;;
515;SDS011;244;48.508;9.052;2022-07-03T07:46:28;1.67;;;1.60;;
515;SDS011;244;48.508;9.052;2022-07-03T07:48:55;1.00;;;0.93;;
515;SDS011;244;48.508;9.052;2022-07-03T07:51:22;1.00;;;0.90;;
515;SDS011;244;48.508;9.052;2022-07-03T07:53:51;0.97;;;0.87;;
515;SDS011;244;48.508;9.052;2022-07-03T07:56:22;1.30;;;1.20;;
515;SDS011;244;48.508;9.052;2022-07-03T07:58:49;1.20;;;1.10;;
515;SDS011;244;48.508;9.052;2022-07-03T08:01:19;0.93;;;0.83;;
515;SDS011;244;48.508;9.052;2022-07-03T08:04:12;0.97;;;0.87;;
515;SDS011;244;48.508;9.052;2022-07-03T08:06:56;1.20;;;1.10;;
515;SDS011;244;48.508;9.052;2022-07-03T08:09:26;1.57;;;1.50;;
515;SDS011;244;48.508;9.052;2022-07-03T08:11:52;0.93;;;0.83;;
515;SDS011;244;48.508;9.052;2022-07-03T08:14:19;1.40;;;0.80;;
515;SDS011;244;48.508;9.052;2022-07-03T08:16:46;1.27;;;1.17;;
515;SDS011;244;48.508;9.052;2022-07-03T08:19:15;1.10;;;1.00;;
515;SDS011;244;48.508;9.052;2022-07-03T08:21:44;1.10;;;1.00;;
515;SDS011;244;48.508;9.052;2022-07-03T08:24:11;1.13;;;1.03;;
515;SDS011;244;48.508;9.052;2022-07-03T08:26:38;1.00;;;0.90;;
515;SDS011;244;48.508;9.052;2022-07-03T08:29:05;1.00;;;0.90;;
515;SDS011;244;48.508;9.052;2022-07-03T08:31:32;1.60;;;1.00;;
515;SDS011;244;48.508;9.052;2022-07-03T08:33:59;0.83;;;0.73;;
515;SDS011;244;48.508;9.052;2022-07-03T08:36:27;5.97;;;0.70;;
515;SDS011;244;48.508;9.052;2022-07-03T08:38:54;0.80;;;0.70;;
515;SDS011;244;48.508;9.052;2022-07-03T08:41:22;0.70;;;0.63;;
515;SDS011;244;48.508;9.052;2022-07-03T08:43:50;0.80;;;0.70;;
515;SDS011;244;48.508;9.052;2022-07-03T08:46:17;0.73;;;0.63;;
515;SDS011;244;48.508;9.052;2022-07-03T08:48:52;0.93;;;0.83;;
515;SDS011;244;48.508;9.052;2022-07-03T08:51:23;0.90;;;0.80;;
515;SDS011;244;48.508;9.052;2022-07-03T08:53:53;0.70;;;0.70;;
515;SDS011;244;48.508;9.052;2022-07-03T08:56:25;0.60;;;0.57;;
515;SDS011;244;48.508;9.052;2022-07-03T08:58:53;0.97;;;0.87;;
515;SDS011;244;48.508;9.052;2022-07-03T09:01:21;0.50;;;0.50;;
515;SDS011;244;48.508;9.052;2022-07-03T09:03:48;0.80;;;0.60;;
515;SDS011;244;48.508;9.052;2022-07-03T09:06:24;3.80;;;0.60;;
515;SDS011;244;48.508;9.052;2022-07-03T09:09:00;0.47;;;0.47;;
515;SDS011;244;48.508;9.052;2022-07-03T09:11:28;0.53;;;0.50;;
515;SDS011;244;48.508;9.052;2022-07-03T09:13:55;0.67;;;0.60;;
515;SDS011;244;48.508;9.052;2022-07-03T09:16:22;0.83;;;0.73;;
515;SDS011;244;48.508;9.052;2022-07-03T09:18:49;0.50;;;0.50;;
515;SDS011;244;48.508;9.052;2022-07-03T09:21:16;1.03;;;0.70;;
515;SDS011;244;48.508;9.052;2022-07-03T09:23:45;0.60;;;0.50;;
515;SDS011;244;48.508;9.052;2022-07-03T09:26:14;0.40;;;0.40;;
515;SDS011;244;48.508;9.052;2022-07-03T09:28:43;0.60;;;0.50;;
515;SDS011;244;48.508;9.052;2022-07-03T09:31:17;2.10;;;0.90;;
515;SDS011;244;48.508;9.052;2022-07-03T09:33:53;0.70;;;0.60;;
515;SDS011;244;48.508;9.052;2022-07-03T09:36:21;0.70;;;0.70;;
515;SDS011;244;48.508;9.052;2022-07-03T09:38:49;0.53;;;0.47;;
515;SDS011;244;48.508;9.052;2022-07-03T09:41:17;0.80;;;0.70;;
515;SDS011;244;48.508;9.052;2022-07-03T09:43:44;0.60;;;0.50;;
515;SDS011;244;48.508;9.052;2022-07-03T09:46:11;0.40;;;0.40;;
515;SDS011;244;48.508;9.052;2022-07-03T09:48:39;0.70;;;0.60;;
515;SDS011;244;48.508;9.052;2022-07-03T09:51:16;0.60;;;0.50;;
515;SDS011;244;48.508;9.052;2022-07-03T09:53:46;0.60;;;0.50;;
515;SDS011;244;48.508;9.052;2022-07-03T09:56:15;0.60;;;0.47;;
515;SDS011;244;48.508;9.052;2022-07-03T10:01:27;0.60;;;0.50;;
515;SDS011;244;48.508;9.052;2022-07-03T10:03:56;1.37;;;0.67;;
515;SDS011;244;48.508;9.052;2022-07-03T10:06:44;3.67;;;0.70;;
515;SDS011;244;48.508;9.052;2022-07-03T10:09:17;1.30;;;1.17;;
515;SDS011;244;48.508;9.052;2022-07-03T10:11:47;0.90;;;0.80;;
515;SDS011;244;48.508;9.052;2022-07-03T10:14:14;0.60;;;0.50;;
515;SDS011;244;48.508;9.052;2022-07-03T10:16:42;0.97;;;0.73;;
515;SDS011;244;48.508;9.052;2022-07-03T10:19:14;0.73;;;0.63;;
515;SDS011;244;48.508;9.052;2022-07-03T10:21:47;0.70;;;0.60;;
515;SDS011;244;48.508;9.052;2022-07-03T10:24:20;0.50;;;0.40;;
515;SDS011;244;48.508;9.052;2022-07-03T10:26:51;0.70;;;0.60;;
515;SDS011;244;48.508;9.052;2022-07-03T10:29:20;0.80;;;0.73;;
515;SDS011;244;48.508;9.052;2022-07-03T10:31:51;0.60;;;0.50;;
515;SDS011;244;48.508;9.052;2022-07-03T10:34:22;1.40;;;0.77;;
515;SDS011;244;48.508;9.052;2022-07-03T10:36:51;0.60;;;0.50;;
515;SDS011;244;48.508;9.052;2022-07-03T10:42:22;0.67;;;0.67;;
515;SDS011;244;48.508;9.052;2022-07-03T10:45:11;0.70;;;0.60;;
515;SDS011;244;48.508;9.052;2022-07-03T10:47:45;0.80;;;0.77;;
515;SDS011;244;48.508;9.052;2022-07-03T10:50:13;0.50;;;0.50;;
515;SDS011;244;48.508;9.052;2022-07-03T10:52:41;1.10;;;0.57;;
515;SDS011;244;48.508;9.052;2022-07-03T10:55:08;1.07;;;0.97;;
515;SDS011;244;48.508;9.052;2022-07-03T10:57:37;2.17;;;0.60;;
515;SDS011;244;48.508;9.052;2022-07-03T11:00:12;0.77;;;0.50;;
515;SDS011;244;48.508;9.052;2022-07-03T11:02:40;0.80;;;0.70;;
515;SDS011;244;48.508;9.052;2022-07-03T11:08:06;0.50;;;0.50;;
515;SDS011;244;48.508;9.052;2022-07-03T11:10:35;1.00;;;0.90;;
515;SDS011;244;48.508;9.052;2022-07-03T11:13:08;0.60;;;0.57;;
515;SDS011;244;48.508;9.052;2022-07-03T11:15:41;1.07;;;0.70;;
515;SDS011;244;48.508;9.052;2022-07-03T11:18:13;0.47;;;0.43;;
515;SDS011;244;48.508;9.052;2022-07-03T11:24:01;0.70;;;0.60;;
515;SDS011;244;48.508;9.052;2022-07-03T11:27:11;0.40;;;0.40;;
515;SDS011;244;48.508;9.052;2022-07-03T11:29:52;0.80;;;0.60;;
515;SDS011;244;48.508;9.052;2022-07-03T11:38:19;0.40;;;0.40;;
515;SDS011;244;48.508;9.052;2022-07-03T11:40:51;0.50;;;0.40;;
515;SDS011;244;48.508;9.052;2022-07-03T11:43:18;1.00;;;0.47;;
515;SDS011;244;48.508;9.052;2022-07-03T11:45:47;1.10;;;0.60;;
515;SDS011;244;48.508;9.052;2022-07-03T11:48:15;1.03;;;0.50;;
515;SDS011;244;48.508;9.052;2022-07-03T11:50:44;1.37;;;0.80;;
515;SDS011;244;48.508;9.052;2022-07-03T11:53:16;0.40;;;0.40;;
515;SDS011;244;48.508;9.052;2022-07-03T11:55:51;1.00;;;0.67;;
515;SDS011;244;48.508;9.052;2022-07-03T11:58:19;0.73;;;0.63;;
515;SDS011;244;48.508;9.052;2022-07-03T12:00:48;0.40;;;0.40;;
515;SDS011;244;48.508;9.052;2022-07-03T12:03:21;1.40;;;0.73;;
515;SDS011;244;48.508;9.052;2022-07-03T12:05:50;0.67;;;0.60;;
515;SDS011;244;48.508;9.052;2022-07-03T12:08:21;0.57;;;0.50;;
515;SDS011;244;48.508;9.052;2022-07-03T12:10:55;2.40;;;0.40;;
515;SDS011;244;48.508;9.052;2022-07-03T12:13:39;0.70;;;0.50;;
515;SDS011;244;48.508;9.052;2022-07-03T12:16:14;2.10;;;0.87;;
515;SDS011;244;48.508;9.052;2022-07-03T12:18:50;0.50;;;0.50;;
515;SDS011;244;48.508;9.052;2022-07-03T12:21:19;0.73;;;0.50;;
515;SDS011;244;48.508;9.052;2022-07-03T12:23:48;1.90;;;0.83;;
515;SDS011;244;48.508;9.052;2022-07-03T12:26:29;0.50;;;0.47;;
515;SDS011;244;48.508;9.052;2022-07-03T12:28:56;0.50;;;0.50;;
515;SDS011;244;48.508;9.052;2022-07-03T12:31:29;0.70;;;0.60;;
515;SDS011;244;48.508;9.052;2022-07-03T12:33:56;0.40;;;0.40;;
515;SDS011;244;48.508;9.052;2022-07-03T12:36:24;0.53;;;0.47;;
515;SDS011;244;48.508;9.052;2022-07-03T12:38:52;0.50;;;0.40;;
515;SDS011;244;48.508;9.052;2022-07-03T12:41:20;1.63;;;0.50;;
515;SDS011;244;48.508;9.052;2022-07-03T12:43:48;0.70;;;0.50;;
515;SDS011;244;48.508;9.052;2022-07-03T12:46:19;0.50;;;0.47;;
515;SDS011;244;48.508;9.052;2022-07-03T12:48:50;0.50;;;0.50;;
515;SDS011;244;48.508;9.052;2022-07-03T12:54:03;0.60;;;0.53;;
515;SDS011;244;48.508;9.052;2022-07-03T12:56:31;1.03;;;0.50;;
515;SDS011;244;48.508;9.052;2022-07-03T12:58:58;0.70;;;0.60;;
515;SDS011;244;48.508;9.052;2022-07-03T13:01:42;0.70;;;0.53;;
515;SDS011;244;48.508;9.052;2022-07-03T13:04:14;0.60;;;0.50;;
515;SDS011;244;48.508;9.052;2022-07-03T13:06:59;0.40;;;0.40;;
515;SDS011;244;48.508;9.052;2022-07-03T13:09:26;0.70;;;0.60;;
515;SDS011;244;48.508;9.052;2022-07-03T13:11:53;0.40;;;0.40;;
515;SDS011;244;48.508;9.052;2022-07-03T13:14:20;0.97;;;0.87;;
515;SDS011;244;48.508;9.052;2022-07-03T13:16:50;0.73;;;0.63;;
515;SDS011;244;48.508;9.052;2022-07-03T13:19:20;1.47;;;0.60;;
515;SDS011;244;48.508;9.052;2022-07-03T13:21:49;0.70;;;0.60;;
515;SDS011;244;48.508;9.052;2022-07-03T13:24:17;0.60;;;0.50;;
515;SDS011;244;48.508;9.052;2022-07-03T13:26:44;0.50;;;0.50;;
515;SDS011;244;48.508;9.052;2022-07-03T13:29:11;0.80;;;0.80;;
515;SDS011;244;48.508;9.052;2022-07-03T13:31:39;0.40;;;0.40;;
515;SDS011;244;48.508;9.052;2022-07-03T13:34:06;0.77;;;0.73;;
515;SDS011;244;48.508;9.052;2022-07-03T13:36:34;0.60;;;0.50;;
515;SDS011;244;48.508;9.052;2022-07-03T13:39:01;0.90;;;0.80;;
515;SDS011;244;48.508;9.052;2022-07-03T13:41:28;0.50;;;0.50;;
515;SDS011;244;48.508;9.052;2022-07-03T13:43:55;0.63;;;0.60;;
515;SDS011;244;48.508;9.052;2022-07-03T13:46:22;0.90;;;0.80;;
515;SDS011;244;48.508;9.052;2022-07-03T13:48:50;0.60;;;0.60;;
515;SDS011;244;48.508;9.052;2022-07-03T13:51:17;0.73;;;0.63;;
515;SDS011;244;48.508;9.052;2022-07-03T13:53:46;0.90;;;0.80;;
515;SDS011;244;48.508;9.052;2022-07-03T13:56:13;0.50;;;0.50;;
515;SDS011;244;48.508;9.052;2022-07-03T13:58:40;0.80;;;0.73;;
515;SDS011;244;48.508;9.052;2022-07-03T14:01:12;1.53;;;0.70;;
515;SDS011;244;48.508;9.052;2022-07-03T14:03:46;1.13;;;0.87;;
515;SDS011;244;48.508;9.052;2022-07-03T14:06:13;0.60;;;0.50;;
515;SDS011;244;48.508;9.052;2022-07-03T14:08:40;0.98;;;0.60;;
515;SDS011;244;48.508;9.052;2022-07-03T14:11:11;0.60;;;0.60;;
515;SDS011;244;48.508;9.052;2022-07-03T14:13:40;1.58;;;0.63;;
515;SDS011;244;48.508;9.052;2022-07-03T14:16:06;1.33;;;0.90;;
515;SDS011;244;48.508;9.052;2022-07-03T14:18:33;0.65;;;0.60;;
515;SDS011;244;48.508;9.052;2022-07-03T14:21:00;0.82;;;0.73;;
515;SDS011;244;48.508;9.052;2022-07-03T14:23:27;1.67;;;0.80;;
515;SDS011;244;48.508;9.052;2022-07-03T14:25:58;0.70;;;0.60;;
515;SDS011;244;48.508;9.052;2022-07-03T14:28:26;0.60;;;0.52;;
515;SDS011;244;48.508;9.052;2022-07-03T14:31:10;0.90;;;0.80;;
515;SDS011;244;48.508;9.052;2022-07-03T14:33:55;0.98;;;0.88;;
515;SDS011;244;48.508;9.052;2022-07-03T14:36:21;0.45;;;0.43;;
515;SDS011;244;48.508;9.052;2022-07-03T14:38:50;0.40;;;0.40;;
515;SDS011;244;48.508;9.052;2022-07-03T14:41:17;0.82;;;0.52;;
515;SDS011;244;48.508;9.052;2022-07-03T14:43:46;0.80;;;0.70;;
515;SDS011;244;48.508;9.052;2022-07-03T14:46:13;1.02;;;0.93;;
515;SDS011;244;48.508;9.052;2022-07-03T14:48:39;0.73;;;0.63;;
515;SDS011;244;48.508;9.052;2022-07-03T14:51:06;0.60;;;0.60;;
515;SDS011;244;48.508;9.052;2022-07-03T14:53:33;1.05;;;0.77;;
515;SDS011;244;48.508;9.052;2022-07-03T14:56:03;0.50;;;0.50;;
515;SDS011;244;48.508;9.052;2022-07-03T14:58:31;0.50;;;0.50;;
515;SDS011;244;48.508;9.052;2022-07-03T15:00:59;0.90;;;0.80;;
515;SDS011;244;48.508;9.052;2022-07-03T15:03:29;0.63;;;0.60;;
515;SDS011;244;48.508;9.052;2022-07-03T15:06:01;0.80;;;0.70;;
515;SDS011;244;48.508;9.052;2022-07-03T15:08:38;0.52;;;0.52;;
515;SDS011;244;48.508;9.052;2022-07-03T15:11:15;0.40;;;0.40;;
515;SDS011;244;48.508;9.052;2022-07-03T15:14:04;0.50;;;0.50;;
515;SDS011;244;48.508;9.052;2022-07-03T15:16:35;0.45;;;0.45;;
515;SDS011;244;48.508;9.052;2022-07-03T15:19:05;0.70;;;0.60;;
515;SDS011;244;48.508;9.052;2022-07-03T15:21:34;0.50;;;0.40;;
515;SDS011;244;48.508;9.052;2022-07-03T15:24:04;0.65;;;0.55;;
515;SDS011;244;48.508;9.052;2022-07-03T15:26:32;2.35;;;0.60;;
515;SDS011;244;48.508;9.052;2022-07-03T15:29:00;0.80;;;0.70;;
515;SDS011;244;48.508;9.052;2022-07-03T15:31:35;0.60;;;0.50;;
515;SDS011;244;48.508;9.052;2022-07-03T15:34:02;0.70;;;0.43;;
515;SDS011;244;48.508;9.052;2022-07-03T15:36:34;0.80;;;0.50;;
515;SDS011;244;48.508;9.052;2022-07-03T15:39:09;0.70;;;0.60;;
515;SDS011;244;48.508;9.052;2022-07-03T15:41:44;0.68;;;0.60;;
515;SDS011;244;48.508;9.052;2022-07-03T15:44:24;0.45;;;0.40;;
515;SDS011;244;48.508;9.052;2022-07-03T15:47:02;0.50;;;0.50;;
515;SDS011;244;48.508;9.052;2022-07-03T15:49:39;0.40;;;0.35;;
515;SDS011;244;48.508;9.052;2022-07-03T15:52:10;0.75;;;0.43;;
515;SDS011;244;48.508;9.052;2022-07-03T15:54:51;0.65;;;0.50;;
515;SDS011;244;48.508;9.052;2022-07-03T15:57:25;0.40;;;0.40;;
515;SDS011;244;48.508;9.052;2022-07-03T15:59:58;0.77;;;0.60;;
515;SDS011;244;48.508;9.052;2022-07-03T16:02:32;0.60;;;0.60;;
515;SDS011;244;48.508;9.052;2022-07-03T16:05:06;1.63;;;0.63;;
515;SDS011;244;48.508;9.052;2022-07-03T16:07:37;0.60;;;0.50;;
515;SDS011;244;48.508;9.052;2022-07-03T16:10:06;0.60;;;0.45;;
515;SDS011;244;48.508;9.052;2022-07-03T16:12:34;0.57;;;0.50;;
515;SDS011;244;48.508;9.052;2022-07-03T16:15:02;1.30;;;0.68;;
515;SDS011;244;48.508;9.052;2022-07-03T16:17:32;0.60;;;0.50;;
515;SDS011;244;48.508;9.052;2022-07-03T16:20:00;0.80;;;0.70;;
515;SDS011;244;48.508;9.052;2022-07-03T16:22:27;0.55;;;0.47;;
515;SDS011;244;48.508;9.052;2022-07-03T16:24:54;0.50;;;0.50;;